Saint-Vincent-De-Paul, Canada
Current Conditions -  °F | °C
As of 5:00 AM on Tuesday 21 Oct 2014 (Local Time) from CYUL Reporting Station
Light Rain Light Rain  
Wind Chill: 36°   Ceiling: 3500
Heat Index: 43°   Visibility: 15mi
Dew Point: 39°   Wind: 13mph
Humidity: 87%   Direction: 50°NE
Pressure: 29.95"   Gusts: NA
Location:  45.62°N, 73.65°W
Report Text: CYUL 210900Z 05011KT 15SM -RA OVC035 06/04 A2995 RMK SC8 SLP144
Loading
Personal Weather Stations






























Interactive Weather Map
Tropical Storm Tracking
New forecast layout! Learn more

10-Day Weather Forecast

Advertisements
Track Severe Weather on mobile